Time;durP1;ratioP1;P1;durP2;ratioP2;P2;SDS_P1;SDS_P2;PMS_P1;PMS_P2;Temp;Humidity;BMP_temperature;BMP_pressure;BME280_temperature;BME280_humidity;BME280_pressure;Samples;Min_cycle;Max_cycle;Signal;HPM_P1;HPM_P2
2021/10/28 00:12:38;;;;;;;26.30;18.42;;;;;;;7.82;100.00;99869.34;4969392;28;20208;-74
2021/10/28 00:15:09;;;;;;;28.27;19.10;;;;;;;7.77;100.00;99868.66;5024935;28;20280;-72
2021/10/28 00:17:46;;;;;;;26.58;18.65;;;;;;;7.67;100.00;99861.00;5054510;28;20204;-73
2021/10/28 00:20:12;;;;;;;24.20;17.52;;;;;;;7.67;100.00;99866.38;5075604;28;20193;-72
2021/10/28 00:22:39;;;;;;;30.70;18.67;;;;;;;7.73;100.00;99854.50;5056240;28;20202;-72
2021/10/28 00:25:07;;;;;;;26.38;18.83;;;;;;;7.77;100.00;99845.41;5050776;28;20603;-73
2021/10/28 00:27:34;;;;;;;25.73;17.35;;;;;;;7.75;100.00;99846.41;5037793;28;20216;-74
2021/10/28 00:30:01;;;;;;;22.10;16.30;;;;;;;7.99;100.00;99834.63;5045473;28;20862;-72
2021/10/28 00:32:28;;;;;;;23.85;17.50;;;;;;;8.03;100.00;99838.94;5045340;28;20198;-73
2021/10/28 00:34:56;;;;;;;21.30;16.60;;;;;;;8.06;100.00;99833.41;5053760;28;20189;-72
2021/10/28 00:37:23;;;;;;;19.40;15.10;;;;;;;8.14;100.00;99835.78;5047357;28;20205;-73
2021/10/28 00:39:50;;;;;;;21.85;16.08;;;;;;;8.17;100.00;99827.59;5053934;28;20190;-72
2021/10/28 00:42:18;;;;;;;21.90;16.20;;;;;;;8.19;100.00;99827.53;5053262;28;21015;-72
2021/10/28 00:44:45;;;;;;;23.67;16.00;;;;;;;8.18;100.00;99833.81;5036040;28;20273;-74
2021/10/28 00:47:12;;;;;;;21.30;14.75;;;;;;;8.25;100.00;99825.41;5034485;28;20245;-74
2021/10/28 00:49:38;;;;;;;22.90;16.20;;;;;;;8.20;100.00;99829.25;5053250;28;20200;-72
2021/10/28 00:52:07;;;;;;;22.42;16.65;;;;;;;8.32;100.00;99828.69;5054433;28;20191;-73
2021/10/28 00:54:35;;;;;;;20.95;16.42;;;;;;;8.31;100.00;99835.00;5049506;28;20209;-73
2021/10/28 00:57:03;;;;;;;25.38;18.20;;;;;;;8.32;100.00;99831.38;5053364;28;20194;-75
2021/10/28 00:59:29;;;;;;;26.15;18.00;;;;;;;8.29;100.00;99832.38;5047704;28;20195;-74
2021/10/28 01:01:56;;;;;;;24.80;18.52;;;;;;;8.23;100.00;99838.06;5034011;28;20201;-74
2021/10/28 01:04:23;;;;;;;28.60;18.80;;;;;;;8.25;100.00;99828.09;5049223;28;20638;-74
2021/10/28 01:06:50;;;;;;;27.27;19.90;;;;;;;8.19;100.00;99835.56;5046574;28;20188;-73
2021/10/28 01:09:18;;;;;;;25.70;18.58;;;;;;;8.14;100.00;99828.59;5049182;28;20195;-74
2021/10/28 01:11:45;;;;;;;26.40;18.92;;;;;;;8.32;100.00;99826.91;5049587;28;20191;-73
2021/10/28 01:14:12;;;;;;;26.13;17.75;;;;;;;8.26;100.00;99840.59;5048782;28;20248;-73
2021/10/28 01:16:38;;;;;;;32.63;18.75;;;;;;;8.29;100.00;99836.91;5054079;28;20209;-73
2021/10/28 01:19:05;;;;;;;25.30;17.67;;;;;;;8.23;100.00;99829.13;5046586;28;20193;-73
2021/10/28 01:21:33;;;;;;;28.42;19.73;;;;;;;8.15;100.00;99838.38;5040925;28;20561;-73
2021/10/28 01:24:00;;;;;;;26.55;19.15;;;;;;;8.23;100.00;99831.78;5052062;28;20194;-74
2021/10/28 01:26:26;;;;;;;23.75;18.80;;;;;;;8.22;100.00;99840.78;5052673;28;20574;-73
2021/10/28 01:28:56;;;;;;;25.60;19.13;;;;;;;8.14;100.00;99828.59;5047293;28;20233;-74
2021/10/28 01:31:24;;;;;;;28.42;19.08;;;;;;;8.26;100.00;99829.00;5038084;28;20186;-73
2021/10/28 01:33:52;;;;;;;23.25;17.17;;;;;;;8.22;100.00;99830.06;5039545;28;20273;-74
2021/10/28 01:36:20;;;;;;;24.45;19.73;;;;;;;7.98;100.00;99818.59;5048055;28;20202;-74
2021/10/28 01:38:49;;;;;;;21.70;15.23;;;;;;;8.05;100.00;99818.28;5048803;28;20196;-73
2021/10/28 01:41:16;;;;;;;21.88;16.10;;;;;;;7.84;100.00;99814.72;5044791;28;20185;-73
2021/10/28 01:43:43;;;;;;;20.35;15.90;;;;;;;7.80;100.00;99820.28;5047433;28;20264;-74
2021/10/28 01:46:10;;;;;;;24.92;17.15;;;;;;;7.76;100.00;99816.88;5033564;28;20526;-74
2021/10/28 01:48:40;;;;;;;25.42;15.73;;;;;;;7.79;100.00;99827.44;5046722;28;20667;-74
2021/10/28 01:51:07;;;;;;;18.65;14.07;;;;;;;7.96;100.00;99817.78;5037186;28;20233;-73
2021/10/28 01:53:37;;;;;;;20.85;13.63;;;;;;;8.05;100.00;99812.03;5041312;28;20229;-74
2021/10/28 01:56:05;;;;;;;17.90;13.45;;;;;;;8.14;100.00;99806.28;5051310;28;20663;-73
2021/10/28 01:58:32;;;;;;;16.83;13.30;;;;;;;7.77;100.00;99807.00;5052481;28;20189;-73
2021/10/28 02:01:00;;;;;;;16.00;12.73;;;;;;;7.44;100.00;99802.13;5043654;28;20690;-73
2021/10/28 02:03:27;;;;;;;19.35;13.68;;;;;;;7.65;100.00;99814.66;5036366;28;20671;-73
2021/10/28 02:05:53;;;;;;;16.65;12.80;;;;;;;7.60;100.00;99805.94;5037300;28;20281;-73
2021/10/28 02:08:20;;;;;;;18.45;13.82;;;;;;;7.64;100.00;99807.56;5044776;28;20205;-73
2021/10/28 02:10:47;;;;;;;19.17;14.40;;;;;;;7.77;100.00;99801.66;5047201;28;20250;-73
2021/10/28 02:13:15;;;;;;;19.83;13.73;;;;;;;7.85;100.00;99800.38;5051586;28;20611;-73
2021/10/28 02:15:42;;;;;;;13.43;11.73;;;;;;;7.82;100.00;99791.59;5032598;28;20203;-73
2021/10/28 02:18:10;;;;;;;19.05;13.85;;;;;;;7.79;100.00;99800.66;5048481;28;20206;-73
2021/10/28 02:20:38;;;;;;;17.00;13.40;;;;;;;7.81;100.00;99789.88;5044967;28;20742;-73
2021/10/28 02:23:05;;;;;;;16.73;13.90;;;;;;;7.74;100.00;99794.63;5047813;28;20223;-74
2021/10/28 02:25:32;;;;;;;19.08;14.27;;;;;;;7.80;100.00;99785.41;5033999;28;20202;-73
2021/10/28 02:27:59;;;;;;;17.70;13.60;;;;;;;7.71;100.00;99779.53;5037581;28;20214;-73
2021/10/28 02:30:28;;;;;;;29.50;22.42;;;;;;;7.69;100.00;99778.75;5043398;28;20240;-73
2021/10/28 02:32:55;;;;;;;43.40;33.25;;;;;;;7.61;100.00;99778.19;5037794;28;20189;-74
2021/10/28 02:35:21;;;;;;;34.97;24.35;;;;;;;7.59;100.00;99776.50;5041689;28;20312;-74
2021/10/28 02:37:48;;;;;;;28.55;20.13;;;;;;;7.53;100.00;99774.97;5042379;28;20189;-74
2021/10/28 02:40:15;;;;;;;26.73;15.90;;;;;;;7.48;100.00;99779.66;5038218;28;20197;-72
2021/10/28 02:42:42;;;;;;;21.10;15.05;;;;;;;7.62;100.00;99781.72;5037213;28;20204;-72
2021/10/28 02:45:10;;;;;;;23.25;15.27;;;;;;;7.45;100.00;99779.78;5032693;28;20201;-73
2021/10/28 02:47:39;;;;;;;26.98;16.45;;;;;;;7.28;100.00;99772.44;5035849;28;20288;-73
2021/10/28 02:50:06;;;;;;;25.80;15.93;;;;;;;7.42;100.00;99780.78;5052415;28;20217;-74
2021/10/28 02:52:35;;;;;;;21.75;14.90;;;;;;;7.37;100.00;99776.56;5047982;28;20200;-73
2021/10/28 02:55:01;;;;;;;22.42;15.43;;;;;;;7.38;100.00;99768.47;5052394;28;20189;-73
2021/10/28 02:57:28;;;;;;;23.08;14.98;;;;;;;7.49;100.00;99768.88;5047965;28;20638;-73
2021/10/28 02:59:55;;;;;;;21.05;15.50;;;;;;;7.56;100.00;99769.47;5051453;28;20327;-73
2021/10/28 03:02:22;;;;;;;21.10;14.68;;;;;;;7.58;100.00;99770.28;5035395;28;20187;-73
2021/10/28 03:04:50;;;;;;;25.02;13.40;;;;;;;7.63;100.00;99762.91;5046669;28;20249;-73
2021/10/28 03:07:16;;;;;;;26.13;15.77;;;;;;;7.67;100.00;99764.53;5033400;28;20190;-73
2021/10/28 03:09:43;;;;;;;22.85;15.50;;;;;;;7.80;100.00;99764.88;5051572;28;20275;-73
2021/10/28 03:12:10;;;;;;;23.55;14.23;;;;;;;7.78;100.00;99761.38;5049170;28;20197;-72
2021/10/28 03:14:40;;;;;;;23.30;14.13;;;;;;;7.81;100.00;99771.09;5037323;28;20192;-74
2021/10/28 03:17:21;;;;;;;27.88;15.43;;;;;;;7.85;100.00;99762.84;5041579;28;20283;-73
2021/10/28 03:20:08;;;;;;;20.65;14.70;;;;;;;7.82;100.00;99765.66;5046407;28;20243;-73
2021/10/28 03:25:38;;;;;;;17.63;13.95;;;;;;;7.66;100.00;99768.13;5033329;28;20227;-74
2021/10/28 03:28:05;;;;;;;17.73;12.60;;;;;;;7.77;100.00;99769.50;5051035;28;20202;-74
2021/10/28 03:30:32;;;;;;;19.58;13.77;;;;;;;7.58;100.00;99772.97;5049626;28;20234;-73
2021/10/28 03:33:01;;;;;;;18.73;13.43;;;;;;;7.39;100.00;99775.53;5044373;28;20188;-74
2021/10/28 03:35:28;;;;;;;19.00;13.38;;;;;;;7.40;100.00;99777.31;5043070;28;20191;-73
2021/10/28 03:37:59;;;;;;;18.10;12.13;;;;;;;7.29;100.00;99777.75;5042886;28;20203;-73
2021/10/28 03:40:44;;;;;;;19.10;12.85;;;;;;;7.48;100.00;99768.94;5037377;28;20205;-74
2021/10/28 04:00:04;;;;;;;18.40;12.27;;;;;;;7.36;100.00;99769.47;5048197;28;20641;-74
2021/10/28 04:19:27;;;;;;;25.48;13.30;;;;;;;6.92;100.00;99781.09;5040662;28;21031;-72
2021/10/28 04:28:52;;;;;;;21.65;12.23;;;;;;;6.72;100.00;99779.19;5039857;28;20695;-73
2021/10/28 04:30:21;;;;;;;24.58;12.93;;;;;;;6.81;100.00;99777.97;5036673;28;20244;-73
2021/10/28 04:32:49;;;;;;;25.30;12.57;;;;;;;6.84;100.00;99784.03;5032509;28;20190;-73
2021/10/28 04:35:16;;;;;;;24.95;12.30;;;;;;;6.90;100.00;99785.63;5032121;28;20633;-74
2021/10/28 04:37:45;;;;;;;28.02;12.65;;;;;;;6.78;100.00;99784.28;5030682;28;20217;-73
2021/10/28 04:40:14;;;;;;;27.05;12.25;;;;;;;6.86;100.00;99781.31;5030809;28;20290;-73
2021/10/28 04:42:42;;;;;;;25.80;12.55;;;;;;;6.89;100.00;99784.72;5033098;28;20213;-73
2021/10/28 04:45:10;;;;;;;23.10;12.98;;;;;;;7.18;100.00;99776.47;5035601;28;20197;-73
2021/10/28 04:47:37;;;;;;;25.50;12.70;;;;;;;7.10;100.00;99774.97;5054246;28;20241;-73
2021/10/28 04:50:04;;;;;;;23.77;12.85;;;;;;;7.32;100.00;99776.75;5041716;28;20216;-74
2021/10/28 04:52:31;;;;;;;23.75;12.88;;;;;;;7.40;100.00;99782.66;5046284;28;20197;-73
2021/10/28 04:54:57;;;;;;;18.15;11.63;;;;;;;7.67;100.00;99785.97;5050255;28;20182;-73
2021/10/28 04:57:24;;;;;;;21.33;17.05;;;;;;;7.81;100.00;99787.19;5037497;28;20209;-73
2021/10/28 04:59:52;;;;;;;16.77;13.05;;;;;;;7.73;100.00;99785.72;5034454;28;20190;-73
2021/10/28 05:02:19;;;;;;;17.48;12.27;;;;;;;7.79;100.00;99789.06;5052562;28;20924;-73
2021/10/28 05:04:45;;;;;;;17.33;12.02;;;;;;;7.82;100.00;99778.19;5053559;28;20236;-73
2021/10/28 05:07:12;;;;;;;14.85;10.30;;;;;;;7.46;100.00;99781.50;5036169;28;20204;-73
2021/10/28 05:09:40;;;;;;;17.02;11.82;;;;;;;7.67;100.00;99777.06;5051028;28;20220;-74
2021/10/28 05:12:08;;;;;;;15.63;11.25;;;;;;;7.77;100.00;99782.88;5040391;28;20198;-73
2021/10/28 05:14:34;;;;;;;15.25;11.18;;;;;;;7.61;100.00;99772.81;5035033;28;20309;-74
2021/10/28 05:17:02;;;;;;;19.77;12.80;;;;;;;7.59;100.00;99771.16;5035220;28;20305;-74
2021/10/28 05:19:31;;;;;;;19.58;11.25;;;;;;;7.52;100.00;99770.53;5034809;28;20212;-73
2021/10/28 05:21:57;;;;;;;18.50;11.40;;;;;;;7.47;100.00;99780.59;5041820;28;20193;-72
2021/10/28 05:24:24;;;;;;;14.05;11.55;;;;;;;7.64;100.00;99774.50;5049234;28;20190;-73
2021/10/28 05:26:51;;;;;;;18.20;12.63;;;;;;;7.59;100.00;99772.03;5041238;28;20202;-72
2021/10/28 05:29:17;;;;;;;15.45;11.93;;;;;;;7.78;100.00;99768.53;5034854;28;20684;-72
2021/10/28 05:31:44;;;;;;;14.45;11.57;;;;;;;7.49;100.00;99759.97;5048866;28;20194;-73
2021/10/28 05:34:12;;;;;;;16.15;10.63;;;;;;;7.52;100.00;99763.38;5051401;28;20312;-73
2021/10/28 05:36:39;;;;;;;14.75;10.20;;;;;;;7.52;100.00;99762.50;5050261;28;20227;-73
2021/10/28 05:39:05;;;;;;;17.20;11.30;;;;;;;7.64;100.00;99764.69;5033228;28;20198;-73
2021/10/28 05:41:32;;;;;;;15.65;12.57;;;;;;;7.82;100.00;99765.66;5034233;28;21011;-74
2021/10/28 05:43:59;;;;;;;19.92;11.18;;;;;;;7.76;100.00;99760.59;5039797;28;20232;-74
2021/10/28 05:46:25;;;;;;;15.98;11.00;;;;;;;7.82;100.00;99762.09;5034356;28;20202;-74
2021/10/28 05:48:52;;;;;;;14.55;10.48;;;;;;;8.16;100.00;99761.47;5043987;28;20206;-72
2021/10/28 05:51:20;;;;;;;18.52;11.20;;;;;;;8.20;100.00;99767.56;5049386;28;20223;-73
2021/10/28 05:53:47;;;;;;;17.80;11.55;;;;;;;8.26;100.00;99772.66;5058044;28;20225;-72
2021/10/28 05:56:14;;;;;;;22.55;12.60;;;;;;;8.21;100.00;99766.59;5052659;28;20196;-73
2021/10/28 05:58:41;;;;;;;18.13;11.57;;;;;;;8.39;100.00;99770.25;5053018;28;20628;-73
2021/10/28 06:01:08;;;;;;;22.75;13.68;;;;;;;8.47;100.00;99770.81;5052460;28;20198;-74
2021/10/28 06:03:36;;;;;;;20.83;12.02;;;;;;;8.45;100.00;99765.50;5052545;28;20301;-73
2021/10/28 06:06:03;;;;;;;20.10;12.77;;;;;;;8.46;100.00;99769.94;5053041;28;20281;-73
2021/10/28 06:08:31;;;;;;;16.88;11.02;;;;;;;8.54;100.00;99773.13;5052610;28;20237;-74
2021/10/28 06:10:59;;;;;;;27.77;13.30;;;;;;;8.51;100.00;99767.06;5052367;28;20194;-74
2021/10/28 06:13:28;;;;;;;19.95;13.02;;;;;;;8.44;100.00;99766.47;5052749;28;20216;-73
2021/10/28 06:15:55;;;;;;;20.05;13.35;;;;;;;8.60;100.00;99755.03;5051981;28;20300;-73
2021/10/28 06:21:06;;;;;;;23.20;14.75;;;;;;;8.60;100.00;99763.94;5048635;28;20190;-73
2021/10/28 06:23:34;;;;;;;20.30;12.15;;;;;;;8.54;100.00;99756.16;5052049;28;20214;-73
2021/10/28 06:26:00;;;;;;;20.52;12.88;;;;;;;8.27;100.00;99752.94;5052535;28;20591;-74
2021/10/28 06:28:27;;;;;;;21.90;12.20;;;;;;;7.92;100.00;99742.00;5051548;28;20649;-73
2021/10/28 06:30:53;;;;;;;19.92;11.80;;;;;;;8.03;100.00;99739.72;5051272;28;20270;-72
2021/10/28 06:33:21;;;;;;;25.77;12.43;;;;;;;7.71;100.00;99743.81;5052183;28;20575;-74
2021/10/28 06:35:49;;;;;;;21.10;12.13;;;;;;;7.96;100.00;99748.97;5051770;28;20194;-75
2021/10/28 06:38:15;;;;;;;25.85;14.52;;;;;;;7.83;100.00;99737.06;5052201;28;20278;-75
2021/10/28 06:40:43;;;;;;;25.83;14.02;;;;;;;7.60;100.00;99752.34;5051439;28;20272;-73
2021/10/28 06:43:10;;;;;;;27.02;15.88;;;;;;;7.78;100.00;99747.09;5051347;28;20193;-72
2021/10/28 06:45:37;;;;;;;32.45;15.60;;;;;;;8.04;100.00;99748.63;5051190;28;20620;-75
2021/10/28 06:48:06;;;;;;;28.95;16.05;;;;;;;8.27;100.00;99747.56;5051776;28;20604;-74
2021/10/28 06:50:39;;;;;;;27.92;16.92;;;;;;;8.42;100.00;99746.03;5051447;28;20682;-74
2021/10/28 06:53:10;;;;;;;29.33;16.48;;;;;;;8.50;100.00;99747.41;5051504;28;20281;-74
2021/10/28 06:55:43;;;;;;;25.58;14.60;;;;;;;8.43;100.00;99751.28;5051610;28;20200;-75
2021/10/28 07:03:39;;;;;;;25.27;15.00;;;;;;;8.77;100.00;99757.75;5051377;28;20197;-73
2021/10/28 07:06:09;;;;;;;32.33;16.15;;;;;;;8.66;100.00;99755.59;5050732;28;20240;-73
2021/10/28 07:08:39;;;;;;;21.83;14.15;;;;;;;8.72;100.00;99755.28;5049898;28;20190;-73
2021/10/28 07:11:09;;;;;;;24.75;14.93;;;;;;;8.72;100.00;99755.28;5050034;28;20205;-74
2021/10/28 07:13:40;;;;;;;27.23;14.40;;;;;;;8.92;100.00;99757.00;5050383;28;20543;-73
2021/10/28 07:16:14;;;;;;;24.25;14.75;;;;;;;8.99;100.00;99757.56;5050811;28;20191;-75
2021/10/28 07:18:49;;;;;;;25.17;15.88;;;;;;;8.88;100.00;99766.16;5049307;28;20196;-75
2021/10/28 07:21:34;;;;;;;25.15;13.15;;;;;;;8.92;100.00;99757.00;5051102;28;20313;-72
2021/10/28 07:27:03;;;;;;;24.42;14.23;;;;;;;9.08;100.00;99767.88;5039337;28;20201;-73
2021/10/28 07:35:33;;;;;;;21.77;13.45;;;;;;;9.06;100.00;99766.22;5051411;28;20180;-75
2021/10/28 07:57:35;;;;;;;23.70;14.80;;;;;;;9.79;100.00;99759.78;5051289;28;20276;-74
2021/10/28 08:14:15;;;;;;;22.75;12.95;;;;;;;10.16;97.82;99749.75;5050987;28;20287;-74
2021/10/28 08:17:04;;;;;;;20.40;12.43;;;;;;;10.25;96.95;99756.47;5048550;28;20193;-74
2021/10/28 08:19:41;;;;;;;17.20;11.80;;;;;;;10.30;96.55;99764.31;5052307;28;20185;-74
2021/10/28 08:22:13;;;;;;;22.20;13.55;;;;;;;10.51;94.94;99752.38;5054984;28;20191;-75
2021/10/28 08:30:09;;;;;;;19.70;12.50;;;;;;;10.58;92.65;99734.03;5054251;28;20342;-75
2021/10/28 08:32:37;;;;;;;17.88;12.50;;;;;;;10.38;94.22;99737.88;5053564;28;20280;-74
2021/10/28 08:35:06;;;;;;;20.88;13.18;;;;;;;10.59;93.06;99736.66;5054749;28;20232;-74
2021/10/28 08:37:39;;;;;;;19.27;12.95;;;;;;;10.74;91.98;99732.25;5054636;28;20205;-73
2021/10/28 08:40:07;;;;;;;21.10;12.60;;;;;;;10.78;91.83;99733.78;5048414;28;20582;-73
2021/10/28 08:42:34;;;;;;;25.67;15.85;;;;;;;10.89;91.07;99735.88;5053309;28;20196;-75
2021/10/28 08:45:03;;;;;;;20.25;14.38;;;;;;;11.06;90.25;99737.63;5054708;28;20564;-75
2021/10/28 08:47:30;;;;;;;17.65;12.20;;;;;;;10.78;91.38;99732.94;5054704;28;20545;-74
2021/10/28 08:49:59;;;;;;;22.77;14.05;;;;;;;10.60;93.36;99726.75;5054706;28;20721;-74
2021/10/28 08:52:56;;;;;;;21.15;13.50;;;;;;;10.94;92.72;99731.09;5054047;28;20189;-74
2021/10/28 08:55:29;;;;;;;22.15;13.68;;;;;;;11.06;90.39;99734.91;5054044;28;20193;-75
2021/10/28 09:26:29;;;;;;;17.27;10.90;;;;;;;10.78;91.84;99712.25;5053986;28;20193;-72
2021/10/28 09:29:05;;;;;;;18.70;13.25;;;;;;;10.90;92.62;99713.38;5053230;28;20239;-73
2021/10/28 09:31:35;;;;;;;18.77;12.85;;;;;;;10.94;92.40;99706.84;5053274;28;20217;-75
2021/10/28 09:34:11;;;;;;;18.90;12.45;;;;;;;11.05;91.86;99707.09;5053857;28;20189;-74
2021/10/28 09:45:34;;;;;;;17.25;11.50;;;;;;;11.35;88.46;99697.28;5046675;28;20569;-73
2021/10/28 09:48:10;;;;;;;17.30;11.52;;;;;;;11.22;89.88;99706.09;5053149;28;20184;-75
2021/10/28 09:50:49;;;;;;;16.58;11.52;;;;;;;11.26;89.83;99694.19;5052995;28;20655;-75
2021/10/28 09:53:25;;;;;;;15.25;12.27;;;;;;;11.15;90.50;99703.88;5053616;28;20235;-73
2021/10/28 09:58:37;;;;;;;16.77;11.55;;;;;;;11.95;85.55;99709.88;5033063;28;20189;-74
2021/10/28 10:01:07;;;;;;;19.17;12.15;;;;;;;12.19;84.48;99702.94;5051599;28;20289;-73
2021/10/28 10:03:37;;;;;;;14.50;11.02;;;;;;;12.41;83.26;99696.16;5052995;28;20204;-73
2021/10/28 10:06:05;;;;;;;12.85;10.70;;;;;;;12.66;81.81;99699.03;5052446;28;20255;-73
2021/10/28 10:08:34;;;;;;;14.98;11.07;;;;;;;12.73;80.49;99700.34;5052481;28;20274;-73
2021/10/28 10:11:01;;;;;;;15.60;10.48;;;;;;;12.58;81.38;99698.66;5051969;28;20873;-75
2021/10/28 10:13:29;;;;;;;14.90;11.15;;;;;;;12.78;80.72;99701.91;5051737;28;20186;-73
2021/10/28 10:16:00;;;;;;;21.60;13.43;;;;;;;12.81;79.88;99702.53;5052638;28;20197;-74
2021/10/28 10:18:28;;;;;;;15.05;11.35;;;;;;;12.80;79.72;99702.63;5052521;28;20197;-74
2021/10/28 10:20:59;;;;;;;17.65;12.60;;;;;;;12.55;81.64;99698.84;5052607;28;20627;-74
2021/10/28 10:23:38;;;;;;;18.10;13.43;;;;;;;12.63;81.71;99701.91;5052116;28;20206;-73
2021/10/28 11:21:43;;;;;;;15.25;12.98;;;;;;;14.37;71.71;99634.03;5049590;28;20193;-73
2021/10/28 12:17:18;;;;;;;16.38;13.73;;;;;;;14.67;72.94;99566.88;5014336;28;20204;-74
2021/10/28 12:25:43;;;;;;;18.67;15.82;;;;;;;14.29;74.55;99538.94;5007544;28;20524;-73
2021/10/28 12:45:35;;;;;;;23.65;17.55;;;;;;;14.01;77.06;99495.94;5054112;28;20207;-75
2021/10/28 12:50:54;;;;;;;18.80;16.20;;;;;;;14.43;76.33;99509.97;5031159;28;20278;-73
2021/10/28 12:53:40;;;;;;;17.70;15.20;;;;;;;14.64;74.73;99497.50;5054447;28;20236;-74
2021/10/28 12:56:30;;;;;;;18.60;15.07;;;;;;;14.90;73.30;99498.22;5054921;28;20188;-74
2021/10/28 13:35:37;;;;;;;15.45;13.00;;;;;;;17.32;62.63;99473.75;5033734;28;20193;-75
2021/10/28 13:38:25;;;;;;;14.93;13.32;;;;;;;17.23;63.12;99469.09;5033063;28;20267;-75
2021/10/28 13:49:09;;;;;;;14.35;12.85;;;;;;;18.16;59.86;99465.31;5053411;28;20247;-75
2021/10/28 13:51:46;;;;;;;15.68;14.07;;;;;;;18.45;59.19;99468.06;5051192;28;20563;-74
2021/10/28 13:54:40;;;;;;;17.98;13.52;;;;;;;18.85;57.39;99460.75;5033463;28;20188;-74
2021/10/28 13:57:36;;;;;;;13.05;11.75;;;;;;;18.95;56.66;99459.75;5033189;28;20281;-75
2021/10/28 14:25:04;;;;;;;14.45;10.93;;;;;;;15.82;68.41;99462.91;5052521;28;20310;-74
2021/10/28 15:27:37;;;;;;;10.93;9.85;;;;;;;15.26;72.14;99436.63;5048643;28;20597;-74
2021/10/28 15:28:21;;;;;;;14.00;10.45;;;;;;;15.04;72.80;99410.38;5028176;28;20273;-74
2021/10/28 15:36:28;;;;;;;12.85;9.63;;;;;;;14.89;74.01;99395.31;5019413;28;20279;-74
2021/10/28 15:39:05;;;;;;;12.07;10.75;;;;;;;14.83;74.39;99406.63;5058491;28;20598;-75
2021/10/28 15:41:50;;;;;;;16.08;12.05;;;;;;;14.72;75.41;99393.91;5047410;28;20185;-74
2021/10/28 16:01:15;;;;;;;12.57;9.77;;;;;;;13.86;86.48;99377.00;5085593;28;20193;-73
2021/10/28 16:23:09;;;;;;;11.52;8.32;;;;;;;13.16;96.74;99380.34;5108939;28;20199;-74
2021/10/28 16:25:36;;;;;;;10.73;9.60;;;;;;;13.19;96.33;99374.72;5108883;28;20185;-74
2021/10/28 16:28:04;;;;;;;11.90;9.63;;;;;;;13.15;96.55;99370.50;5108833;28;20574;-73
2021/10/28 16:30:31;;;;;;;14.45;10.10;;;;;;;12.92;98.30;99377.56;5107760;28;20289;-74
2021/10/28 16:32:58;;;;;;;12.45;10.68;;;;;;;12.96;97.91;99372.78;5107527;28;20193;-75
2021/10/28 16:35:24;;;;;;;16.30;12.18;;;;;;;12.87;97.86;99374.31;5105081;28;20304;-74
2021/10/28 16:37:52;;;;;;;16.52;12.57;;;;;;;12.89;98.18;99370.53;5108319;28;20280;-74
2021/10/28 16:40:19;;;;;;;24.13;15.27;;;;;;;12.59;100.00;99373.53;5105332;28;20185;-73
2021/10/28 16:42:45;;;;;;;14.55;11.95;;;;;;;12.66;100.00;99385.69;5107683;28;20190;-74
2021/10/28 16:45:13;;;;;;;11.43;10.30;;;;;;;12.69;100.00;99376.50;5106072;28;20192;-74
2021/10/28 16:47:40;;;;;;;15.23;12.43;;;;;;;12.71;100.00;99375.41;5108066;28;20280;-74
2021/10/28 16:50:08;;;;;;;16.52;14.75;;;;;;;12.70;100.00;99378.19;5107960;28;20188;-74
2021/10/28 16:52:35;;;;;;;17.35;15.65;;;;;;;12.67;100.00;99373.03;5106110;28;20200;-74
2021/10/28 16:55:02;;;;;;;18.70;14.07;;;;;;;12.58;100.00;99370.97;5104872;28;20264;-73
2021/10/28 16:57:29;;;;;;;12.85;10.13;;;;;;;12.61;100.00;99378.84;5108168;28;20226;-73
2021/10/28 16:59:55;;;;;;;16.45;12.82;;;;;;;12.40;100.00;99370.41;5107969;28;20192;-76
2021/10/28 17:02:23;;;;;;;16.55;12.75;;;;;;;12.44;100.00;99369.25;5107957;28;20194;-74
2021/10/28 17:04:50;;;;;;;15.57;11.77;;;;;;;12.20;100.00;99369.94;5103375;28;20285;-74
2021/10/28 17:07:17;;;;;;;12.35;11.05;;;;;;;12.13;100.00;99368.63;5094736;28;20190;-74
2021/10/28 17:09:44;;;;;;;11.95;10.70;;;;;;;11.91;100.00;99368.38;5094080;28;20190;-75
2021/10/28 17:12:10;;;;;;;15.48;12.73;;;;;;;11.92;100.00;99370.09;5094644;28;20189;-72
2021/10/28 17:14:38;;;;;;;18.45;15.52;;;;;;;11.86;100.00;99366.81;5093831;28;20263;-74
2021/10/28 17:17:04;;;;;;;19.42;15.75;;;;;;;11.89;100.00;99365.75;5089778;28;20218;-73
2021/10/28 17:19:32;;;;;;;22.55;15.77;;;;;;;11.84;100.00;99366.03;5092567;28;20240;-73
2021/10/28 17:21:59;;;;;;;20.38;14.93;;;;;;;11.66;100.00;99364.56;5088607;28;20272;-74
2021/10/28 17:24:33;;;;;;;20.55;16.05;;;;;;;11.56;100.00;99366.16;5094527;28;20199;-74
2021/10/28 17:27:00;;;;;;;19.15;16.33;;;;;;;11.62;100.00;99365.72;5094455;28;20228;-74
2021/10/28 17:29:27;;;;;;;17.90;15.68;;;;;;;11.53;100.00;99359.13;5094630;28;20344;-73
2021/10/28 17:31:55;;;;;;;18.88;16.35;;;;;;;11.45;100.00;99364.16;5094455;28;20214;-74
2021/10/28 17:34:22;;;;;;;16.42;13.85;;;;;;;11.36;100.00;99365.63;5074522;28;20205;-75
2021/10/28 17:36:53;;;;;;;17.05;15.23;;;;;;;11.41;100.00;99360.78;5074450;28;20603;-72
2021/10/28 17:39:20;;;;;;;18.95;15.20;;;;;;;11.29;100.00;99361.59;5082214;28;20219;-75
2021/10/28 17:41:47;;;;;;;16.50;14.80;;;;;;;11.43;100.00;99360.69;5082090;28;20285;-74
2021/10/28 17:44:14;;;;;;;18.95;16.95;;;;;;;11.41;100.00;99355.41;5094167;28;20271;-74
2021/10/28 17:46:41;;;;;;;19.73;16.65;;;;;;;11.37;100.00;99359.25;5094302;28;20196;-74
2021/10/28 17:49:09;;;;;;;22.05;17.70;;;;;;;11.42;100.00;99351.75;5093911;28;20200;-74
2021/10/28 17:51:38;;;;;;;19.73;16.80;;;;;;;11.51;100.00;99354.78;5074286;28;20793;-74
2021/10/28 17:54:09;;;;;;;17.38;15.63;;;;;;;11.37;100.00;99350.31;5078538;28;20235;-73
2021/10/28 17:56:37;;;;;;;24.58;16.55;;;;;;;11.33;100.00;99352.34;5094167;28;20683;-75
2021/10/28 17:59:04;;;;;;;22.75;17.83;;;;;;;11.37;100.00;99353.00;5094221;28;20195;-74
2021/10/28 18:01:31;;;;;;;19.90;16.65;;;;;;;11.38;100.00;99352.91;5093958;28;20199;-74
2021/10/28 18:04:00;;;;;;;22.77;20.20;;;;;;;11.26;100.00;99351.00;5092681;28;20188;-74
2021/10/28 18:06:27;;;;;;;22.02;19.50;;;;;;;11.31;100.00;99356.97;5091545;28;20600;-74
2021/10/28 18:08:54;;;;;;;23.55;19.63;;;;;;;11.28;100.00;99351.78;5074160;28;20722;-73
2021/10/28 18:11:22;;;;;;;20.08;17.63;;;;;;;11.09;100.00;99362.88;5076562;28;20189;-74
2021/10/28 18:13:53;;;;;;;24.77;21.08;;;;;;;10.83;100.00;99353.75;5074071;28;20310;-75
2021/10/28 18:16:21;;;;;;;23.48;18.92;;;;;;;10.78;100.00;99353.19;5079194;28;20242;-75
2021/10/28 18:18:48;;;;;;;23.30;18.42;;;;;;;10.87;100.00;99360.69;5092985;28;20196;-74
2021/10/28 18:21:17;;;;;;;29.33;22.63;;;;;;;10.92;100.00;99363.97;5087040;28;20276;-74
2021/10/28 18:23:48;;;;;;;22.40;18.48;;;;;;;11.10;100.00;99350.28;5073364;28;20239;-74
2021/10/28 18:26:15;;;;;;;24.02;18.83;;;;;;;10.93;100.00;99354.91;5084484;28;20611;-73
2021/10/28 18:28:44;;;;;;;24.65;19.95;;;;;;;10.93;100.00;99348.66;5077112;28;20283;-73
2021/10/28 18:31:10;;;;;;;26.30;20.08;;;;;;;10.67;100.00;99356.53;5076739;28;20200;-74
2021/10/28 18:33:37;;;;;;;27.75;21.50;;;;;;;10.52;100.00;99357.50;5090607;28;20817;-72
2021/10/28 18:36:06;;;;;;;30.27;22.77;;;;;;;10.48;100.00;99353.28;5092840;28;20235;-73
2021/10/28 18:38:34;;;;;;;23.83;19.75;;;;;;;10.45;100.00;99362.41;5085304;28;20249;-74
2021/10/28 18:41:01;;;;;;;25.45;20.27;;;;;;;10.47;100.00;99351.53;5074010;28;20556;-74
2021/10/28 18:43:28;;;;;;;24.33;20.42;;;;;;;10.43;100.00;99345.47;5088206;28;20291;-75
2021/10/28 18:45:57;;;;;;;25.73;20.90;;;;;;;10.36;100.00;99349.53;5086972;28;20225;-76
2021/10/28 18:48:25;;;;;;;25.27;20.60;;;;;;;10.28;100.00;99351.75;5082747;28;20271;-73
2021/10/28 18:50:52;;;;;;;24.15;20.25;;;;;;;10.09;100.00;99350.19;5081649;28;20668;-73
2021/10/28 18:53:19;;;;;;;25.23;20.08;;;;;;;10.16;100.00;99346.16;5084679;28;20211;-73
2021/10/28 18:55:45;;;;;;;27.02;21.73;;;;;;;10.23;100.00;99338.59;5084969;28;20212;-74
2021/10/28 18:58:12;;;;;;;23.65;20.02;;;;;;;10.25;100.00;99342.06;5078753;28;20523;-73
2021/10/28 19:00:39;;;;;;;27.75;19.73;;;;;;;10.21;100.00;99356.66;5076022;28;20597;-73